sensor_id;sensor_type;location;lat;lon;timestamp;P1;durP1;ratioP1;P2;durP2;ratioP2
75496;SDS011;64074;47.540;19.072;2023-03-23T00:00:43;28.33;;;16.02;;
75496;SDS011;64074;47.540;19.072;2023-03-23T00:03:46;29.30;;;16.38;;
75496;SDS011;64074;47.540;19.072;2023-03-23T00:06:49;29.05;;;16.17;;
75496;SDS011;64074;47.540;19.072;2023-03-23T00:09:50;28.63;;;16.23;;
75496;SDS011;64074;47.540;19.072;2023-03-23T00:12:55;27.73;;;15.80;;
75496;SDS011;64074;47.540;19.072;2023-03-23T00:15:58;32.20;;;16.48;;
75496;SDS011;64074;47.540;19.072;2023-03-23T00:19:04;29.80;;;16.42;;
75496;SDS011;64074;47.540;19.072;2023-03-23T00:22:07;27.60;;;16.42;;
75496;SDS011;64074;47.540;19.072;2023-03-23T00:25:09;33.60;;;16.63;;
75496;SDS011;64074;47.540;19.072;2023-03-23T00:28:11;27.80;;;15.43;;
75496;SDS011;64074;47.540;19.072;2023-03-23T00:31:14;30.75;;;16.60;;
75496;SDS011;64074;47.540;19.072;2023-03-23T00:34:17;31.05;;;16.23;;
75496;SDS011;64074;47.540;19.072;2023-03-23T00:37:21;29.27;;;15.75;;
75496;SDS011;64074;47.540;19.072;2023-03-23T00:40:24;28.70;;;16.00;;
75496;SDS011;64074;47.540;19.072;2023-03-23T00:43:28;30.83;;;15.77;;
75496;SDS011;64074;47.540;19.072;2023-03-23T00:46:31;26.40;;;15.73;;
75496;SDS011;64074;47.540;19.072;2023-03-23T00:49:33;37.75;;;16.73;;
75496;SDS011;64074;47.540;19.072;2023-03-23T00:52:35;33.47;;;17.00;;
75496;SDS011;64074;47.540;19.072;2023-03-23T00:55:40;29.63;;;16.23;;
75496;SDS011;64074;47.540;19.072;2023-03-23T00:58:43;29.60;;;15.80;;
75496;SDS011;64074;47.540;19.072;2023-03-23T01:01:46;29.77;;;16.20;;
75496;SDS011;64074;47.540;19.072;2023-03-23T01:04:49;34.42;;;16.88;;
75496;SDS011;64074;47.540;19.072;2023-03-23T01:07:53;35.08;;;16.20;;
75496;SDS011;64074;47.540;19.072;2023-03-23T01:11:01;32.67;;;16.20;;
75496;SDS011;64074;47.540;19.072;2023-03-23T01:14:04;29.70;;;15.37;;
75496;SDS011;64074;47.540;19.072;2023-03-23T01:17:06;31.38;;;15.88;;
75496;SDS011;64074;47.540;19.072;2023-03-23T01:20:13;26.52;;;14.73;;
75496;SDS011;64074;47.540;19.072;2023-03-23T01:23:17;28.17;;;15.80;;
75496;SDS011;64074;47.540;19.072;2023-03-23T01:26:20;29.37;;;16.07;;
75496;SDS011;64074;47.540;19.072;2023-03-23T01:29:23;28.60;;;15.40;;
75496;SDS011;64074;47.540;19.072;2023-03-23T01:32:25;33.58;;;15.57;;
75496;SDS011;64074;47.540;19.072;2023-03-23T01:35:28;30.58;;;16.23;;
75496;SDS011;64074;47.540;19.072;2023-03-23T01:38:31;30.63;;;16.30;;
75496;SDS011;64074;47.540;19.072;2023-03-23T01:41:34;29.87;;;15.63;;
75496;SDS011;64074;47.540;19.072;2023-03-23T01:45:30;26.90;;;14.67;;
75496;SDS011;64074;47.540;19.072;2023-03-23T01:48:24;31.08;;;15.50;;
75496;SDS011;64074;47.540;19.072;2023-03-23T01:51:30;30.80;;;16.27;;
75496;SDS011;64074;47.540;19.072;2023-03-23T01:54:32;30.20;;;15.68;;
75496;SDS011;64074;47.540;19.072;2023-03-23T01:57:38;33.97;;;15.77;;
75496;SDS011;64074;47.540;19.072;2023-03-23T02:00:42;31.70;;;16.47;;
75496;SDS011;64074;47.540;19.072;2023-03-23T02:03:45;30.50;;;16.88;;
75496;SDS011;64074;47.540;19.072;2023-03-23T02:06:49;32.67;;;15.77;;
75496;SDS011;64074;47.540;19.072;2023-03-23T02:09:55;35.55;;;17.35;;
75496;SDS011;64074;47.540;19.072;2023-03-23T02:13:00;29.07;;;16.33;;
75496;SDS011;64074;47.540;19.072;2023-03-23T02:26:14;28.65;;;15.65;;
75496;SDS011;64074;47.540;19.072;2023-03-23T02:29:42;35.57;;;16.10;;
75496;SDS011;64074;47.540;19.072;2023-03-23T02:36:34;32.05;;;15.35;;
75496;SDS011;64074;47.540;19.072;2023-03-23T02:39:43;28.08;;;15.60;;
75496;SDS011;64074;47.540;19.072;2023-03-23T02:42:49;28.20;;;14.82;;
75496;SDS011;64074;47.540;19.072;2023-03-23T02:45:55;31.90;;;15.43;;
75496;SDS011;64074;47.540;19.072;2023-03-23T02:49:00;28.87;;;15.57;;
75496;SDS011;64074;47.540;19.072;2023-03-23T02:52:04;31.63;;;15.68;;
75496;SDS011;64074;47.540;19.072;2023-03-23T02:55:17;28.10;;;14.57;;
75496;SDS011;64074;47.540;19.072;2023-03-23T02:58:21;28.10;;;14.95;;
75496;SDS011;64074;47.540;19.072;2023-03-23T03:04:35;28.00;;;14.33;;
75496;SDS011;64074;47.540;19.072;2023-03-23T03:10:59;28.23;;;14.55;;
75496;SDS011;64074;47.540;19.072;2023-03-23T03:14:12;30.35;;;13.90;;
75496;SDS011;64074;47.540;19.072;2023-03-23T03:17:25;29.93;;;13.97;;
75496;SDS011;64074;47.540;19.072;2023-03-23T03:20:30;28.17;;;14.37;;
75496;SDS011;64074;47.540;19.072;2023-03-23T03:23:34;27.95;;;14.57;;
75496;SDS011;64074;47.540;19.072;2023-03-23T03:26:40;32.00;;;14.68;;
75496;SDS011;64074;47.540;19.072;2023-03-23T03:30:03;29.20;;;14.88;;
75496;SDS011;64074;47.540;19.072;2023-03-23T03:33:12;27.00;;;14.53;;
75496;SDS011;64074;47.540;19.072;2023-03-23T03:36:16;26.27;;;14.37;;
75496;SDS011;64074;47.540;19.072;2023-03-23T03:39:22;26.30;;;14.52;;
75496;SDS011;64074;47.540;19.072;2023-03-23T03:42:23;32.25;;;15.07;;
75496;SDS011;64074;47.540;19.072;2023-03-23T03:45:28;28.77;;;14.32;;
75496;SDS011;64074;47.540;19.072;2023-03-23T03:48:30;22.40;;;12.87;;
75496;SDS011;64074;47.540;19.072;2023-03-23T03:51:32;25.63;;;14.07;;
75496;SDS011;64074;47.540;19.072;2023-03-23T03:54:36;36.63;;;15.32;;
75496;SDS011;64074;47.540;19.072;2023-03-23T03:57:39;24.80;;;13.65;;
75496;SDS011;64074;47.540;19.072;2023-03-23T04:00:56;24.52;;;13.30;;
75496;SDS011;64074;47.540;19.072;2023-03-23T04:04:06;30.73;;;16.53;;
75496;SDS011;64074;47.540;19.072;2023-03-23T04:07:10;28.97;;;14.30;;
75496;SDS011;64074;47.540;19.072;2023-03-23T04:10:15;25.83;;;13.32;;
75496;SDS011;64074;47.540;19.072;2023-03-23T04:13:20;27.90;;;13.80;;
75496;SDS011;64074;47.540;19.072;2023-03-23T04:16:54;24.45;;;13.80;;
75496;SDS011;64074;47.540;19.072;2023-03-23T04:20:00;25.63;;;13.93;;
75496;SDS011;64074;47.540;19.072;2023-03-23T04:23:09;24.70;;;13.27;;
75496;SDS011;64074;47.540;19.072;2023-03-23T04:26:10;24.33;;;13.27;;
75496;SDS011;64074;47.540;19.072;2023-03-23T04:29:20;25.33;;;13.40;;
75496;SDS011;64074;47.540;19.072;2023-03-23T04:32:51;27.20;;;13.55;;
75496;SDS011;64074;47.540;19.072;2023-03-23T04:36:00;24.43;;;13.10;;
75496;SDS011;64074;47.540;19.072;2023-03-23T04:39:12;26.50;;;12.70;;
75496;SDS011;64074;47.540;19.072;2023-03-23T04:42:16;26.13;;;13.65;;
75496;SDS011;64074;47.540;19.072;2023-03-23T04:45:47;24.98;;;12.75;;
75496;SDS011;64074;47.540;19.072;2023-03-23T04:49:00;28.27;;;13.35;;
75496;SDS011;64074;47.540;19.072;2023-03-23T04:52:08;29.97;;;13.53;;
75496;SDS011;64074;47.540;19.072;2023-03-23T04:55:38;24.63;;;13.23;;
75496;SDS011;64074;47.540;19.072;2023-03-23T04:58:45;26.48;;;13.18;;
75496;SDS011;64074;47.540;19.072;2023-03-23T05:02:10;26.77;;;13.57;;
75496;SDS011;64074;47.540;19.072;2023-03-23T05:05:13;25.38;;;13.13;;
75496;SDS011;64074;47.540;19.072;2023-03-23T05:08:15;25.23;;;13.33;;
75496;SDS011;64074;47.540;19.072;2023-03-23T05:11:21;26.57;;;13.50;;
75496;SDS011;64074;47.540;19.072;2023-03-23T05:14:22;25.25;;;13.55;;
75496;SDS011;64074;47.540;19.072;2023-03-23T05:17:36;23.42;;;12.98;;
75496;SDS011;64074;47.540;19.072;2023-03-23T05:20:46;23.10;;;12.63;;
75496;SDS011;64074;47.540;19.072;2023-03-23T05:23:54;25.50;;;13.07;;
75496;SDS011;64074;47.540;19.072;2023-03-23T05:26:57;23.13;;;13.43;;
75496;SDS011;64074;47.540;19.072;2023-03-23T05:30:06;29.50;;;14.20;;
75496;SDS011;64074;47.540;19.072;2023-03-23T05:33:13;27.33;;;13.93;;
75496;SDS011;64074;47.540;19.072;2023-03-23T05:36:24;24.50;;;13.48;;
75496;SDS011;64074;47.540;19.072;2023-03-23T05:39:47;27.40;;;13.93;;
75496;SDS011;64074;47.540;19.072;2023-03-23T05:43:24;23.73;;;13.33;;
75496;SDS011;64074;47.540;19.072;2023-03-23T05:46:53;26.98;;;13.77;;
75496;SDS011;64074;47.540;19.072;2023-03-23T05:49:54;22.42;;;13.52;;
75496;SDS011;64074;47.540;19.072;2023-03-23T05:52:58;31.45;;;15.10;;
75496;SDS011;64074;47.540;19.072;2023-03-23T05:56:01;31.10;;;15.57;;
75496;SDS011;64074;47.540;19.072;2023-03-23T05:59:37;27.03;;;15.17;;
75496;SDS011;64074;47.540;19.072;2023-03-23T06:02:40;30.70;;;17.27;;
75496;SDS011;64074;47.540;19.072;2023-03-23T06:05:49;35.13;;;17.20;;
75496;SDS011;64074;47.540;19.072;2023-03-23T06:08:54;32.03;;;17.38;;
75496;SDS011;64074;47.540;19.072;2023-03-23T06:12:11;36.47;;;18.83;;
75496;SDS011;64074;47.540;19.072;2023-03-23T06:15:29;36.13;;;17.83;;
75496;SDS011;64074;47.540;19.072;2023-03-23T06:18:49;38.13;;;19.25;;
75496;SDS011;64074;47.540;19.072;2023-03-23T06:22:11;41.72;;;20.05;;
75496;SDS011;64074;47.540;19.072;2023-03-23T06:25:33;45.58;;;20.52;;
75496;SDS011;64074;47.540;19.072;2023-03-23T06:28:36;38.93;;;18.90;;
75496;SDS011;64074;47.540;19.072;2023-03-23T06:31:38;33.97;;;18.70;;
75496;SDS011;64074;47.540;19.072;2023-03-23T06:34:43;36.85;;;17.13;;
75496;SDS011;64074;47.540;19.072;2023-03-23T06:38:06;32.70;;;17.75;;
75496;SDS011;64074;47.540;19.072;2023-03-23T06:41:19;32.10;;;17.05;;
75496;SDS011;64074;47.540;19.072;2023-03-23T06:44:21;32.40;;;17.73;;
75496;SDS011;64074;47.540;19.072;2023-03-23T06:47:23;33.27;;;18.40;;
75496;SDS011;64074;47.540;19.072;2023-03-23T06:50:29;33.80;;;18.63;;
75496;SDS011;64074;47.540;19.072;2023-03-23T06:53:52;34.78;;;18.17;;
75496;SDS011;64074;47.540;19.072;2023-03-23T06:56:57;39.83;;;19.48;;
75496;SDS011;64074;47.540;19.072;2023-03-23T07:00:17;32.73;;;18.20;;
75496;SDS011;64074;47.540;19.072;2023-03-23T07:03:20;34.93;;;18.97;;
75496;SDS011;64074;47.540;19.072;2023-03-23T07:06:23;31.60;;;18.15;;
75496;SDS011;64074;47.540;19.072;2023-03-23T07:09:31;28.88;;;15.02;;
75496;SDS011;64074;47.540;19.072;2023-03-23T07:12:35;26.48;;;12.73;;
75496;SDS011;64074;47.540;19.072;2023-03-23T07:15:40;25.00;;;12.83;;
75496;SDS011;64074;47.540;19.072;2023-03-23T07:18:43;28.77;;;12.50;;
75496;SDS011;64074;47.540;19.072;2023-03-23T07:21:46;25.08;;;14.00;;
75496;SDS011;64074;47.540;19.072;2023-03-23T07:24:49;26.75;;;13.07;;
75496;SDS011;64074;47.540;19.072;2023-03-23T07:27:57;27.00;;;13.05;;
75496;SDS011;64074;47.540;19.072;2023-03-23T07:30:59;22.30;;;13.23;;
75496;SDS011;64074;47.540;19.072;2023-03-23T07:34:02;21.63;;;12.50;;
75496;SDS011;64074;47.540;19.072;2023-03-23T07:37:15;25.25;;;12.55;;
75496;SDS011;64074;47.540;19.072;2023-03-23T07:40:22;21.67;;;12.05;;
75496;SDS011;64074;47.540;19.072;2023-03-23T07:43:28;20.67;;;12.13;;
75496;SDS011;64074;47.540;19.072;2023-03-23T07:46:56;23.60;;;11.37;;
75496;SDS011;64074;47.540;19.072;2023-03-23T07:50:32;21.17;;;12.00;;
75496;SDS011;64074;47.540;19.072;2023-03-23T07:54:13;22.83;;;12.23;;
75496;SDS011;64074;47.540;19.072;2023-03-23T07:58:02;21.75;;;12.65;;
75496;SDS011;64074;47.540;19.072;2023-03-23T08:01:22;22.35;;;12.40;;
75496;SDS011;64074;47.540;19.072;2023-03-23T08:05:07;23.63;;;12.57;;
75496;SDS011;64074;47.540;19.072;2023-03-23T08:08:41;21.50;;;12.43;;
75496;SDS011;64074;47.540;19.072;2023-03-23T08:12:04;25.55;;;14.18;;
75496;SDS011;64074;47.540;19.072;2023-03-23T08:15:38;21.42;;;12.77;;
75496;SDS011;64074;47.540;19.072;2023-03-23T08:18:40;22.27;;;12.63;;
75496;SDS011;64074;47.540;19.072;2023-03-23T08:22:12;28.17;;;13.73;;
75496;SDS011;64074;47.540;19.072;2023-03-23T08:25:42;21.30;;;12.73;;
75496;SDS011;64074;47.540;19.072;2023-03-23T08:29:01;22.23;;;12.63;;
75496;SDS011;64074;47.540;19.072;2023-03-23T08:32:32;23.67;;;11.80;;
75496;SDS011;64074;47.540;19.072;2023-03-23T08:35:58;18.15;;;11.55;;
75496;SDS011;64074;47.540;19.072;2023-03-23T08:39:30;18.93;;;11.43;;
75496;SDS011;64074;47.540;19.072;2023-03-23T08:42:47;23.23;;;12.53;;
75496;SDS011;64074;47.540;19.072;2023-03-23T08:46:18;19.02;;;12.25;;
75496;SDS011;64074;47.540;19.072;2023-03-23T08:50:07;21.35;;;12.10;;
75496;SDS011;64074;47.540;19.072;2023-03-23T08:53:44;25.05;;;12.90;;
75496;SDS011;64074;47.540;19.072;2023-03-23T09:02:04;23.00;;;11.33;;
75496;SDS011;64074;47.540;19.072;2023-03-23T09:05:41;24.48;;;11.85;;
75496;SDS011;64074;47.540;19.072;2023-03-23T09:08:59;21.23;;;11.43;;
75496;SDS011;64074;47.540;19.072;2023-03-23T09:12:02;20.67;;;11.07;;
75496;SDS011;64074;47.540;19.072;2023-03-23T09:15:06;18.13;;;11.30;;
75496;SDS011;64074;47.540;19.072;2023-03-23T09:18:11;19.67;;;11.03;;
75496;SDS011;64074;47.540;19.072;2023-03-23T09:21:14;21.83;;;11.48;;
75496;SDS011;64074;47.540;19.072;2023-03-23T09:24:16;23.60;;;10.70;;
75496;SDS011;64074;47.540;19.072;2023-03-23T09:27:18;19.10;;;11.48;;
75496;SDS011;64074;47.540;19.072;2023-03-23T09:30:21;19.77;;;10.53;;
75496;SDS011;64074;47.540;19.072;2023-03-23T09:33:28;17.07;;;10.23;;
75496;SDS011;64074;47.540;19.072;2023-03-23T09:36:41;18.00;;;11.82;;
75496;SDS011;64074;47.540;19.072;2023-03-23T09:39:47;21.05;;;10.40;;
75496;SDS011;64074;47.540;19.072;2023-03-23T09:49:15;16.97;;;10.13;;
75496;SDS011;64074;47.540;19.072;2023-03-23T09:55:49;22.50;;;11.23;;
75496;SDS011;64074;47.540;19.072;2023-03-23T09:58:57;20.55;;;10.52;;
75496;SDS011;64074;47.540;19.072;2023-03-23T10:02:24;17.80;;;10.13;;
75496;SDS011;64074;47.540;19.072;2023-03-23T10:05:41;19.00;;;10.37;;
75496;SDS011;64074;47.540;19.072;2023-03-23T10:08:51;19.02;;;9.95;;
75496;SDS011;64074;47.540;19.072;2023-03-23T10:12:07;19.27;;;10.35;;
75496;SDS011;64074;47.540;19.072;2023-03-23T10:15:29;17.35;;;10.20;;
75496;SDS011;64074;47.540;19.072;2023-03-23T10:21:52;16.73;;;9.73;;
75496;SDS011;64074;47.540;19.072;2023-03-23T10:25:14;16.55;;;9.80;;
75496;SDS011;64074;47.540;19.072;2023-03-23T10:28:19;21.55;;;9.45;;
75496;SDS011;64074;47.540;19.072;2023-03-23T10:35:01;16.97;;;9.67;;
75496;SDS011;64074;47.540;19.072;2023-03-23T10:41:40;16.63;;;9.30;;
75496;SDS011;64074;47.540;19.072;2023-03-23T10:44:45;18.02;;;9.45;;
75496;SDS011;64074;47.540;19.072;2023-03-23T10:48:22;19.40;;;10.50;;
75496;SDS011;64074;47.540;19.072;2023-03-23T10:51:34;13.00;;;9.27;;
75496;SDS011;64074;47.540;19.072;2023-03-23T10:54:45;15.57;;;9.03;;
75496;SDS011;64074;47.540;19.072;2023-03-23T10:58:01;16.45;;;8.43;;
75496;SDS011;64074;47.540;19.072;2023-03-23T11:01:05;14.60;;;7.90;;
75496;SDS011;64074;47.540;19.072;2023-03-23T11:04:11;14.23;;;7.35;;
75496;SDS011;64074;47.540;19.072;2023-03-23T11:07:18;16.77;;;8.27;;
75496;SDS011;64074;47.540;19.072;2023-03-23T11:10:38;12.93;;;8.07;;
75496;SDS011;64074;47.540;19.072;2023-03-23T11:14:02;14.70;;;8.73;;
75496;SDS011;64074;47.540;19.072;2023-03-23T11:17:21;16.00;;;8.52;;
75496;SDS011;64074;47.540;19.072;2023-03-23T11:20:26;15.07;;;7.30;;
75496;SDS011;64074;47.540;19.072;2023-03-23T11:23:33;13.38;;;6.95;;
75496;SDS011;64074;47.540;19.072;2023-03-23T11:26:58;18.77;;;8.20;;
75496;SDS011;64074;47.540;19.072;2023-03-23T11:30:08;13.05;;;7.20;;
75496;SDS011;64074;47.540;19.072;2023-03-23T11:33:14;11.65;;;5.65;;
75496;SDS011;64074;47.540;19.072;2023-03-23T11:36:17;8.15;;;5.38;;
75496;SDS011;64074;47.540;19.072;2023-03-23T11:42:25;13.03;;;5.80;;
75496;SDS011;64074;47.540;19.072;2023-03-23T11:45:35;7.15;;;4.70;;
75496;SDS011;64074;47.540;19.072;2023-03-23T11:48:45;9.25;;;4.35;;
75496;SDS011;64074;47.540;19.072;2023-03-23T11:52:01;17.48;;;4.90;;
75496;SDS011;64074;47.540;19.072;2023-03-23T11:58:20;8.67;;;4.57;;
75496;SDS011;64074;47.540;19.072;2023-03-23T12:11:54;8.50;;;4.97;;
75496;SDS011;64074;47.540;19.072;2023-03-23T12:15:16;7.50;;;5.20;;
75496;SDS011;64074;47.540;19.072;2023-03-23T12:18:53;11.55;;;4.93;;
75496;SDS011;64074;47.540;19.072;2023-03-23T12:22:24;11.10;;;5.22;;
75496;SDS011;64074;47.540;19.072;2023-03-23T12:29:32;10.07;;;4.43;;
75496;SDS011;64074;47.540;19.072;2023-03-23T12:39:13;7.90;;;4.22;;
75496;SDS011;64074;47.540;19.072;2023-03-23T12:42:50;7.38;;;4.15;;
75496;SDS011;64074;47.540;19.072;2023-03-23T12:53:11;5.63;;;4.10;;
75496;SDS011;64074;47.540;19.072;2023-03-23T12:56:33;7.88;;;4.97;;
75496;SDS011;64074;47.540;19.072;2023-03-23T13:03:06;5.27;;;4.30;;
75496;SDS011;64074;47.540;19.072;2023-03-23T13:06:52;7.30;;;4.60;;
75496;SDS011;64074;47.540;19.072;2023-03-23T13:10:18;7.03;;;4.82;;
75496;SDS011;64074;47.540;19.072;2023-03-23T13:24:46;7.07;;;3.63;;
75496;SDS011;64074;47.540;19.072;2023-03-23T13:27:59;6.72;;;3.83;;
75496;SDS011;64074;47.540;19.072;2023-03-23T13:34:41;10.40;;;4.30;;
75496;SDS011;64074;47.540;19.072;2023-03-23T13:37:44;6.53;;;4.03;;
75496;SDS011;64074;47.540;19.072;2023-03-23T13:40:49;10.00;;;4.20;;
75496;SDS011;64074;47.540;19.072;2023-03-23T13:43:52;7.00;;;4.50;;
75496;SDS011;64074;47.540;19.072;2023-03-23T13:47:07;15.38;;;11.63;;
75496;SDS011;64074;47.540;19.072;2023-03-23T13:54:40;9.40;;;4.30;;
75496;SDS011;64074;47.540;19.072;2023-03-23T13:57:55;35.37;;;4.93;;
75496;SDS011;64074;47.540;19.072;2023-03-23T14:04:13;7.82;;;4.10;;
75496;SDS011;64074;47.540;19.072;2023-03-23T14:07:26;7.50;;;4.13;;
75496;SDS011;64074;47.540;19.072;2023-03-23T14:11:13;6.90;;;4.63;;
75496;SDS011;64074;47.540;19.072;2023-03-23T14:17:15;7.03;;;3.85;;
75496;SDS011;64074;47.540;19.072;2023-03-23T14:20:33;11.98;;;4.32;;
75496;SDS011;64074;47.540;19.072;2023-03-23T14:23:38;7.18;;;4.75;;
75496;SDS011;64074;47.540;19.072;2023-03-23T14:26:40;8.23;;;4.30;;
75496;SDS011;64074;47.540;19.072;2023-03-23T14:30:00;8.20;;;4.63;;
75496;SDS011;64074;47.540;19.072;2023-03-23T14:33:17;9.77;;;4.30;;
75496;SDS011;64074;47.540;19.072;2023-03-23T14:36:38;5.47;;;4.80;;
75496;SDS011;64074;47.540;19.072;2023-03-23T14:39:44;8.40;;;4.30;;
75496;SDS011;64074;47.540;19.072;2023-03-23T14:42:49;8.48;;;4.50;;
75496;SDS011;64074;47.540;19.072;2023-03-23T14:45:53;10.10;;;4.77;;
75496;SDS011;64074;47.540;19.072;2023-03-23T14:48:59;9.23;;;5.82;;
75496;SDS011;64074;47.540;19.072;2023-03-23T14:52:08;7.72;;;4.20;;
75496;SDS011;64074;47.540;19.072;2023-03-23T14:55:23;9.55;;;5.13;;
75496;SDS011;64074;47.540;19.072;2023-03-23T14:58:29;10.65;;;4.88;;
75496;SDS011;64074;47.540;19.072;2023-03-23T15:01:32;13.10;;;5.10;;
75496;SDS011;64074;47.540;19.072;2023-03-23T15:04:46;7.75;;;4.57;;
75496;SDS011;64074;47.540;19.072;2023-03-23T15:08:10;7.15;;;4.38;;
75496;SDS011;64074;47.540;19.072;2023-03-23T15:14:20;12.13;;;5.22;;
75496;SDS011;64074;47.540;19.072;2023-03-23T15:17:34;6.37;;;4.10;;
75496;SDS011;64074;47.540;19.072;2023-03-23T15:20:48;7.32;;;4.13;;
75496;SDS011;64074;47.540;19.072;2023-03-23T15:23:51;6.18;;;3.90;;
75496;SDS011;64074;47.540;19.072;2023-03-23T15:26:53;6.30;;;3.20;;
75496;SDS011;64074;47.540;19.072;2023-03-23T15:30:26;6.80;;;3.73;;
75496;SDS011;64074;47.540;19.072;2023-03-23T15:33:33;7.53;;;3.73;;
75496;SDS011;64074;47.540;19.072;2023-03-23T15:36:37;10.70;;;4.50;;
75496;SDS011;64074;47.540;19.072;2023-03-23T15:39:40;8.40;;;4.30;;
75496;SDS011;64074;47.540;19.072;2023-03-23T15:42:43;6.20;;;3.92;;
75496;SDS011;64074;47.540;19.072;2023-03-23T15:49:13;4.90;;;3.90;;
75496;SDS011;64074;47.540;19.072;2023-03-23T15:52:17;6.65;;;4.00;;
75496;SDS011;64074;47.540;19.072;2023-03-23T15:55:29;11.23;;;4.20;;
75496;SDS011;64074;47.540;19.072;2023-03-23T15:58:38;7.25;;;3.63;;
75496;SDS011;64074;47.540;19.072;2023-03-23T16:01:41;9.17;;;4.60;;
75496;SDS011;64074;47.540;19.072;2023-03-23T16:04:45;8.73;;;3.87;;
75496;SDS011;64074;47.540;19.072;2023-03-23T16:07:49;12.50;;;4.38;;
75496;SDS011;64074;47.540;19.072;2023-03-23T16:10:52;7.05;;;3.75;;
75496;SDS011;64074;47.540;19.072;2023-03-23T16:13:56;21.90;;;4.38;;
75496;SDS011;64074;47.540;19.072;2023-03-23T16:16:59;12.10;;;3.90;;
75496;SDS011;64074;47.540;19.072;2023-03-23T16:20:08;11.97;;;3.97;;
75496;SDS011;64074;47.540;19.072;2023-03-23T16:23:22;8.00;;;3.58;;
75496;SDS011;64074;47.540;19.072;2023-03-23T16:26:26;6.40;;;3.50;;
75496;SDS011;64074;47.540;19.072;2023-03-23T16:29:29;12.52;;;3.65;;
75496;SDS011;64074;47.540;19.072;2023-03-23T16:32:53;10.80;;;3.80;;
75496;SDS011;64074;47.540;19.072;2023-03-23T16:35:59;6.10;;;3.33;;
75496;SDS011;64074;47.540;19.072;2023-03-23T16:39:02;7.88;;;2.97;;
75496;SDS011;64074;47.540;19.072;2023-03-23T16:42:05;7.35;;;3.13;;
75496;SDS011;64074;47.540;19.072;2023-03-23T16:45:09;6.70;;;3.17;;
75496;SDS011;64074;47.540;19.072;2023-03-23T16:48:14;4.63;;;3.13;;
75496;SDS011;64074;47.540;19.072;2023-03-23T16:51:18;8.43;;;3.43;;
75496;SDS011;64074;47.540;19.072;2023-03-23T16:54:29;4.65;;;3.20;;
75496;SDS011;64074;47.540;19.072;2023-03-23T16:57:32;9.05;;;3.00;;
75496;SDS011;64074;47.540;19.072;2023-03-23T17:00:39;7.15;;;3.80;;
75496;SDS011;64074;47.540;19.072;2023-03-23T17:03:43;10.43;;;4.00;;
75496;SDS011;64074;47.540;19.072;2023-03-23T17:06:46;9.60;;;3.80;;
75496;SDS011;64074;47.540;19.072;2023-03-23T17:09:49;7.75;;;3.95;;
75496;SDS011;64074;47.540;19.072;2023-03-23T17:12:53;7.25;;;3.60;;
75496;SDS011;64074;47.540;19.072;2023-03-23T17:15:57;8.05;;;3.40;;
75496;SDS011;64074;47.540;19.072;2023-03-23T17:19:00;7.50;;;3.90;;
75496;SDS011;64074;47.540;19.072;2023-03-23T17:22:03;8.73;;;3.67;;
75496;SDS011;64074;47.540;19.072;2023-03-23T17:25:06;10.15;;;3.60;;
75496;SDS011;64074;47.540;19.072;2023-03-23T17:28:11;9.93;;;3.30;;
75496;SDS011;64074;47.540;19.072;2023-03-23T17:31:14;7.97;;;3.20;;
75496;SDS011;64074;47.540;19.072;2023-03-23T17:34:17;22.63;;;12.23;;
75496;SDS011;64074;47.540;19.072;2023-03-23T17:37:21;7.23;;;3.63;;
75496;SDS011;64074;47.540;19.072;2023-03-23T17:40:25;8.05;;;3.47;;
75496;SDS011;64074;47.540;19.072;2023-03-23T17:43:27;8.82;;;3.42;;
75496;SDS011;64074;47.540;19.072;2023-03-23T17:46:30;9.82;;;3.95;;
75496;SDS011;64074;47.540;19.072;2023-03-23T17:49:33;8.73;;;4.33;;
75496;SDS011;64074;47.540;19.072;2023-03-23T17:52:36;9.23;;;3.90;;
75496;SDS011;64074;47.540;19.072;2023-03-23T17:55:40;11.88;;;4.43;;
75496;SDS011;64074;47.540;19.072;2023-03-23T17:58:45;11.25;;;4.63;;
75496;SDS011;64074;47.540;19.072;2023-03-23T18:01:49;7.63;;;4.10;;
75496;SDS011;64074;47.540;19.072;2023-03-23T18:04:55;10.00;;;5.50;;
75496;SDS011;64074;47.540;19.072;2023-03-23T18:07:59;8.83;;;4.63;;
75496;SDS011;64074;47.540;19.072;2023-03-23T18:11:02;8.85;;;3.90;;
75496;SDS011;64074;47.540;19.072;2023-03-23T18:14:06;11.13;;;4.30;;
75496;SDS011;64074;47.540;19.072;2023-03-23T18:17:09;10.32;;;4.53;;
75496;SDS011;64074;47.540;19.072;2023-03-23T18:20:24;8.80;;;4.57;;
75496;SDS011;64074;47.540;19.072;2023-03-23T18:23:28;9.77;;;4.60;;
75496;SDS011;64074;47.540;19.072;2023-03-23T18:26:44;7.68;;;4.80;;
75496;SDS011;64074;47.540;19.072;2023-03-23T18:29:48;8.82;;;4.97;;
75496;SDS011;64074;47.540;19.072;2023-03-23T18:32:51;10.80;;;4.90;;
75496;SDS011;64074;47.540;19.072;2023-03-23T18:35:56;18.97;;;5.47;;
75496;SDS011;64074;47.540;19.072;2023-03-23T18:39:02;11.87;;;5.37;;
75496;SDS011;64074;47.540;19.072;2023-03-23T18:42:07;10.40;;;5.18;;
75496;SDS011;64074;47.540;19.072;2023-03-23T18:45:11;12.85;;;5.53;;
75496;SDS011;64074;47.540;19.072;2023-03-23T18:48:14;10.35;;;6.00;;
75496;SDS011;64074;47.540;19.072;2023-03-23T18:51:17;10.13;;;7.00;;
75496;SDS011;64074;47.540;19.072;2023-03-23T18:54:20;12.77;;;5.87;;
75496;SDS011;64074;47.540;19.072;2023-03-23T18:57:24;9.60;;;5.45;;
75496;SDS011;64074;47.540;19.072;2023-03-23T19:00:27;18.52;;;6.90;;
75496;SDS011;64074;47.540;19.072;2023-03-23T19:03:32;11.23;;;5.93;;
75496;SDS011;64074;47.540;19.072;2023-03-23T19:06:36;9.13;;;5.60;;
75496;SDS011;64074;47.540;19.072;2023-03-23T19:09:39;13.30;;;6.50;;
75496;SDS011;64074;47.540;19.072;2023-03-23T19:12:43;11.45;;;5.78;;
75496;SDS011;64074;47.540;19.072;2023-03-23T19:15:48;13.50;;;7.78;;
75496;SDS011;64074;47.540;19.072;2023-03-23T19:18:51;11.68;;;6.72;;
75496;SDS011;64074;47.540;19.072;2023-03-23T19:21:53;10.67;;;6.20;;
75496;SDS011;64074;47.540;19.072;2023-03-23T19:24:57;11.23;;;6.00;;
75496;SDS011;64074;47.540;19.072;2023-03-23T19:28:01;12.60;;;6.63;;
75496;SDS011;64074;47.540;19.072;2023-03-23T19:31:07;13.95;;;6.63;;
75496;SDS011;64074;47.540;19.072;2023-03-23T19:34:10;11.48;;;6.60;;
75496;SDS011;64074;47.540;19.072;2023-03-23T19:37:13;12.47;;;6.73;;
75496;SDS011;64074;47.540;19.072;2023-03-23T19:40:18;10.77;;;7.27;;
75496;SDS011;64074;47.540;19.072;2023-03-23T19:43:41;12.55;;;7.47;;
75496;SDS011;64074;47.540;19.072;2023-03-23T19:46:44;16.10;;;7.40;;
75496;SDS011;64074;47.540;19.072;2023-03-23T19:49:49;17.20;;;7.72;;
75496;SDS011;64074;47.540;19.072;2023-03-23T19:52:52;15.83;;;8.33;;
75496;SDS011;64074;47.540;19.072;2023-03-23T19:55:56;17.23;;;7.90;;
75496;SDS011;64074;47.540;19.072;2023-03-23T19:59:00;14.23;;;8.50;;
75496;SDS011;64074;47.540;19.072;2023-03-23T20:02:03;13.25;;;8.15;;
75496;SDS011;64074;47.540;19.072;2023-03-23T20:05:07;19.08;;;8.85;;
75496;SDS011;64074;47.540;19.072;2023-03-23T20:08:11;16.70;;;8.67;;
75496;SDS011;64074;47.540;19.072;2023-03-23T20:11:17;18.70;;;9.17;;
75496;SDS011;64074;47.540;19.072;2023-03-23T20:14:21;15.18;;;8.60;;
75496;SDS011;64074;47.540;19.072;2023-03-23T20:17:24;16.38;;;8.68;;
75496;SDS011;64074;47.540;19.072;2023-03-23T20:20:27;13.57;;;9.00;;